sensor_id;sensor_type;location;lat;lon;timestamp;temperature;humidity
11700;DHT22;5906;51.660;6.674;2022-11-03T00:01:43;11.80;99.90
11700;DHT22;5906;51.660;6.674;2022-11-03T00:04:12;11.90;99.90
11700;DHT22;5906;51.660;6.674;2022-11-03T00:06:41;11.90;99.90
11700;DHT22;5906;51.660;6.674;2022-11-03T00:09:11;11.90;99.90
11700;DHT22;5906;51.660;6.674;2022-11-03T00:11:39;11.90;99.90
11700;DHT22;5906;51.660;6.674;2022-11-03T00:14:07;11.90;99.90
11700;DHT22;5906;51.660;6.674;2022-11-03T00:16:35;11.90;99.90
11700;DHT22;5906;51.660;6.674;2022-11-03T00:19:02;11.80;99.90
11700;DHT22;5906;51.660;6.674;2022-11-03T00:21:29;11.80;99.90
11700;DHT22;5906;51.660;6.674;2022-11-03T00:23:56;11.70;99.90
11700;DHT22;5906;51.660;6.674;2022-11-03T00:26:28;11.70;99.90
11700;DHT22;5906;51.660;6.674;2022-11-03T00:29:00;11.70;99.90
11700;DHT22;5906;51.660;6.674;2022-11-03T00:31:29;11.70;99.90
11700;DHT22;5906;51.660;6.674;2022-11-03T00:33:57;11.70;99.90
11700;DHT22;5906;51.660;6.674;2022-11-03T00:36:29;11.70;99.90
11700;DHT22;5906;51.660;6.674;2022-11-03T00:38:56;11.70;99.90
11700;DHT22;5906;51.660;6.674;2022-11-03T00:41:24;11.70;99.90
11700;DHT22;5906;51.660;6.674;2022-11-03T00:43:51;11.60;99.90
11700;DHT22;5906;51.660;6.674;2022-11-03T00:46:19;11.60;99.90
11700;DHT22;5906;51.660;6.674;2022-11-03T00:48:47;11.70;99.90
11700;DHT22;5906;51.660;6.674;2022-11-03T00:51:22;11.70;99.90
11700;DHT22;5906;51.660;6.674;2022-11-03T00:53:54;11.70;99.90
11700;DHT22;5906;51.660;6.674;2022-11-03T00:56:23;11.70;99.90
11700;DHT22;5906;51.660;6.674;2022-11-03T00:58:51;11.70;99.90
11700;DHT22;5906;51.660;6.674;2022-11-03T01:01:21;11.60;99.90
11700;DHT22;5906;51.660;6.674;2022-11-03T01:03:50;11.70;99.90
11700;DHT22;5906;51.660;6.674;2022-11-03T01:06:38;11.70;99.90
11700;DHT22;5906;51.660;6.674;2022-11-03T01:09:25;11.60;99.90
11700;DHT22;5906;51.660;6.674;2022-11-03T01:12:02;11.60;99.90
11700;DHT22;5906;51.660;6.674;2022-11-03T01:14:45;11.60;99.90
11700;DHT22;5906;51.660;6.674;2022-11-03T01:17:23;11.60;99.90
11700;DHT22;5906;51.660;6.674;2022-11-03T01:19:50;11.60;99.90
11700;DHT22;5906;51.660;6.674;2022-11-03T01:22:18;11.50;99.90
11700;DHT22;5906;51.660;6.674;2022-11-03T01:24:46;11.50;99.90
11700;DHT22;5906;51.660;6.674;2022-11-03T01:27:15;11.50;99.90
11700;DHT22;5906;51.660;6.674;2022-11-03T01:29:42;11.50;99.90
11700;DHT22;5906;51.660;6.674;2022-11-03T01:32:09;11.50;99.90
11700;DHT22;5906;51.660;6.674;2022-11-03T01:34:36;11.50;99.90
11700;DHT22;5906;51.660;6.674;2022-11-03T01:37:04;11.50;99.90
11700;DHT22;5906;51.660;6.674;2022-11-03T01:39:30;11.50;99.90
11700;DHT22;5906;51.660;6.674;2022-11-03T01:41:57;11.50;99.90
11700;DHT22;5906;51.660;6.674;2022-11-03T01:44:27;11.50;99.90
11700;DHT22;5906;51.660;6.674;2022-11-03T01:47:02;11.50;99.90
11700;DHT22;5906;51.660;6.674;2022-11-03T01:49:34;11.50;99.90
11700;DHT22;5906;51.660;6.674;2022-11-03T01:52:33;11.50;99.90
11700;DHT22;5906;51.660;6.674;2022-11-03T01:55:12;11.50;99.90
11700;DHT22;5906;51.660;6.674;2022-11-03T01:57:58;11.50;99.90
11700;DHT22;5906;51.660;6.674;2022-11-03T02:00:26;11.50;99.90
11700;DHT22;5906;51.660;6.674;2022-11-03T02:02:53;11.50;99.90
11700;DHT22;5906;51.660;6.674;2022-11-03T02:05:22;11.50;99.90
11700;DHT22;5906;51.660;6.674;2022-11-03T02:08:05;11.50;99.90
11700;DHT22;5906;51.660;6.674;2022-11-03T02:10:39;11.60;99.90
11700;DHT22;5906;51.660;6.674;2022-11-03T02:13:19;11.50;99.90
11700;DHT22;5906;51.660;6.674;2022-11-03T02:15:51;11.50;99.90
11700;DHT22;5906;51.660;6.674;2022-11-03T02:18:23;11.60;99.90
11700;DHT22;5906;51.660;6.674;2022-11-03T02:21:02;11.60;99.90
11700;DHT22;5906;51.660;6.674;2022-11-03T02:26:22;11.60;99.90
11700;DHT22;5906;51.660;6.674;2022-11-03T02:28:49;11.60;99.90
11700;DHT22;5906;51.660;6.674;2022-11-03T02:31:37;11.70;99.90
11700;DHT22;5906;51.660;6.674;2022-11-03T02:34:21;11.70;99.90
11700;DHT22;5906;51.660;6.674;2022-11-03T02:37:04;11.70;99.90
11700;DHT22;5906;51.660;6.674;2022-11-03T02:39:41;11.70;99.90
11700;DHT22;5906;51.660;6.674;2022-11-03T02:42:10;11.80;99.90
11700;DHT22;5906;51.660;6.674;2022-11-03T02:44:38;11.80;99.90
11700;DHT22;5906;51.660;6.674;2022-11-03T02:47:08;11.80;99.90
11700;DHT22;5906;51.660;6.674;2022-11-03T02:49:44;11.70;99.90
11700;DHT22;5906;51.660;6.674;2022-11-03T02:52:41;11.70;99.90
11700;DHT22;5906;51.660;6.674;2022-11-03T02:57:54;11.70;99.90
11700;DHT22;5906;51.660;6.674;2022-11-03T03:00:23;11.80;99.90
11700;DHT22;5906;51.660;6.674;2022-11-03T03:02:59;11.80;99.90
11700;DHT22;5906;51.660;6.674;2022-11-03T03:05:30;11.80;99.90
11700;DHT22;5906;51.660;6.674;2022-11-03T03:08:02;11.90;99.90
11700;DHT22;5906;51.660;6.674;2022-11-03T03:10:35;11.90;99.90
11700;DHT22;5906;51.660;6.674;2022-11-03T03:13:06;11.90;99.90
11700;DHT22;5906;51.660;6.674;2022-11-03T03:16:36;11.80;99.90
11700;DHT22;5906;51.660;6.674;2022-11-03T03:18:48;11.90;99.90
11700;DHT22;5906;51.660;6.674;2022-11-03T03:21:21;11.90;99.90
11700;DHT22;5906;51.660;6.674;2022-11-03T03:23:57;11.90;99.90
11700;DHT22;5906;51.660;6.674;2022-11-03T03:26:32;11.80;99.90
11700;DHT22;5906;51.660;6.674;2022-11-03T03:29:03;11.80;99.90
11700;DHT22;5906;51.660;6.674;2022-11-03T03:31:33;11.80;99.90
11700;DHT22;5906;51.660;6.674;2022-11-03T03:34:02;11.80;99.90
11700;DHT22;5906;51.660;6.674;2022-11-03T03:36:43;11.80;99.90
11700;DHT22;5906;51.660;6.674;2022-11-03T03:39:13;11.70;99.90
11700;DHT22;5906;51.660;6.674;2022-11-03T03:41:41;11.70;99.90
11700;DHT22;5906;51.660;6.674;2022-11-03T03:44:09;11.70;99.90
11700;DHT22;5906;51.660;6.674;2022-11-03T03:46:59;11.60;99.90
11700;DHT22;5906;51.660;6.674;2022-11-03T03:49:26;11.60;99.90
11700;DHT22;5906;51.660;6.674;2022-11-03T03:51:53;11.50;99.90
11700;DHT22;5906;51.660;6.674;2022-11-03T03:54:20;11.60;99.90
11700;DHT22;5906;51.660;6.674;2022-11-03T03:57:04;11.60;99.90
11700;DHT22;5906;51.660;6.674;2022-11-03T03:59:32;11.60;99.90
11700;DHT22;5906;51.660;6.674;2022-11-03T04:01:58;11.60;99.90
11700;DHT22;5906;51.660;6.674;2022-11-03T04:04:26;11.70;99.90
11700;DHT22;5906;51.660;6.674;2022-11-03T04:06:52;11.70;99.90
11700;DHT22;5906;51.660;6.674;2022-11-03T04:09:39;11.70;99.90
11700;DHT22;5906;51.660;6.674;2022-11-03T04:12:07;11.80;99.90
11700;DHT22;5906;51.660;6.674;2022-11-03T04:14:53;11.80;99.90
11700;DHT22;5906;51.660;6.674;2022-11-03T04:17:43;11.80;99.90
11700;DHT22;5906;51.660;6.674;2022-11-03T04:20:30;11.90;99.90
11700;DHT22;5906;51.660;6.674;2022-11-03T04:23:16;11.80;99.90
11700;DHT22;5906;51.660;6.674;2022-11-03T04:25:52;11.90;99.90
11700;DHT22;5906;51.660;6.674;2022-11-03T04:28:20;11.90;99.90
11700;DHT22;5906;51.660;6.674;2022-11-03T04:30:46;11.90;99.90
11700;DHT22;5906;51.660;6.674;2022-11-03T04:33:18;11.90;99.90
11700;DHT22;5906;51.660;6.674;2022-11-03T04:35:46;11.90;99.90
11700;DHT22;5906;51.660;6.674;2022-11-03T04:40:43;11.90;99.90
11700;DHT22;5906;51.660;6.674;2022-11-03T04:43:14;11.90;99.90
11700;DHT22;5906;51.660;6.674;2022-11-03T04:45:44;12.00;99.90
11700;DHT22;5906;51.660;6.674;2022-11-03T04:48:18;12.00;99.90
11700;DHT22;5906;51.660;6.674;2022-11-03T04:50:46;12.10;99.90
11700;DHT22;5906;51.660;6.674;2022-11-03T04:53:16;12.10;99.90
11700;DHT22;5906;51.660;6.674;2022-11-03T04:55:44;12.10;99.90
11700;DHT22;5906;51.660;6.674;2022-11-03T05:00:50;12.10;99.90
11700;DHT22;5906;51.660;6.674;2022-11-03T05:03:23;12.10;99.90
11700;DHT22;5906;51.660;6.674;2022-11-03T05:05:51;12.10;99.90
11700;DHT22;5906;51.660;6.674;2022-11-03T05:08:18;12.10;99.90
11700;DHT22;5906;51.660;6.674;2022-11-03T05:10:45;12.20;99.90
11700;DHT22;5906;51.660;6.674;2022-11-03T05:13:26;12.20;99.90
11700;DHT22;5906;51.660;6.674;2022-11-03T05:16:01;12.20;99.90
11700;DHT22;5906;51.660;6.674;2022-11-03T05:18:31;12.20;99.90
11700;DHT22;5906;51.660;6.674;2022-11-03T05:21:17;12.30;99.90
11700;DHT22;5906;51.660;6.674;2022-11-03T05:23:50;12.40;99.90
11700;DHT22;5906;51.660;6.674;2022-11-03T05:26:23;12.40;99.90
11700;DHT22;5906;51.660;6.674;2022-11-03T05:28:56;12.40;99.90
11700;DHT22;5906;51.660;6.674;2022-11-03T05:31:28;12.40;99.90
11700;DHT22;5906;51.660;6.674;2022-11-03T05:34:00;12.40;99.90
11700;DHT22;5906;51.660;6.674;2022-11-03T05:36:32;12.40;99.90
11700;DHT22;5906;51.660;6.674;2022-11-03T05:39:04;12.40;99.90
11700;DHT22;5906;51.660;6.674;2022-11-03T05:41:39;12.40;99.90
11700;DHT22;5906;51.660;6.674;2022-11-03T05:47:00;12.40;99.90
11700;DHT22;5906;51.660;6.674;2022-11-03T05:49:32;12.40;99.90
11700;DHT22;5906;51.660;6.674;2022-11-03T05:51:59;12.50;99.90
11700;DHT22;5906;51.660;6.674;2022-11-03T05:54:30;12.50;99.90
11700;DHT22;5906;51.660;6.674;2022-11-03T05:56:57;12.50;99.90
11700;DHT22;5906;51.660;6.674;2022-11-03T05:59:26;12.40;99.90
11700;DHT22;5906;51.660;6.674;2022-11-03T06:01:58;12.40;99.90
11700;DHT22;5906;51.660;6.674;2022-11-03T06:04:31;12.40;99.90
11700;DHT22;5906;51.660;6.674;2022-11-03T06:07:02;12.40;99.90
11700;DHT22;5906;51.660;6.674;2022-11-03T06:09:31;12.40;99.90
11700;DHT22;5906;51.660;6.674;2022-11-03T06:12:01;12.50;99.90
11700;DHT22;5906;51.660;6.674;2022-11-03T06:14:29;12.40;99.90
11700;DHT22;5906;51.660;6.674;2022-11-03T06:16:59;12.40;99.90
11700;DHT22;5906;51.660;6.674;2022-11-03T06:19:34;12.30;99.90
11700;DHT22;5906;51.660;6.674;2022-11-03T06:22:09;12.30;99.90
11700;DHT22;5906;51.660;6.674;2022-11-03T06:24:37;12.30;99.90
11700;DHT22;5906;51.660;6.674;2022-11-03T06:27:04;12.30;99.90
11700;DHT22;5906;51.660;6.674;2022-11-03T06:29:32;12.30;99.90
11700;DHT22;5906;51.660;6.674;2022-11-03T06:31:59;12.30;99.90
11700;DHT22;5906;51.660;6.674;2022-11-03T06:34:35;12.30;99.90
11700;DHT22;5906;51.660;6.674;2022-11-03T06:37:23;12.20;99.90
11700;DHT22;5906;51.660;6.674;2022-11-03T06:39:53;12.20;99.90
11700;DHT22;5906;51.660;6.674;2022-11-03T06:42:21;12.10;99.90
11700;DHT22;5906;51.660;6.674;2022-11-03T06:44:51;12.10;99.90
11700;DHT22;5906;51.660;6.674;2022-11-03T06:47:24;12.10;99.90
11700;DHT22;5906;51.660;6.674;2022-11-03T06:49:53;12.10;99.90
11700;DHT22;5906;51.660;6.674;2022-11-03T06:52:29;12.20;99.90
11700;DHT22;5906;51.660;6.674;2022-11-03T06:55:01;12.20;99.90
11700;DHT22;5906;51.660;6.674;2022-11-03T06:57:45;12.10;99.90
11700;DHT22;5906;51.660;6.674;2022-11-03T07:00:18;12.10;99.90
11700;DHT22;5906;51.660;6.674;2022-11-03T07:03:23;12.20;99.90
11700;DHT22;5906;51.660;6.674;2022-11-03T07:08:42;12.20;99.90
11700;DHT22;5906;51.660;6.674;2022-11-03T07:13:41;12.20;99.90
11700;DHT22;5906;51.660;6.674;2022-11-03T07:19:16;12.30;99.90
11700;DHT22;5906;51.660;6.674;2022-11-03T07:21:47;12.30;99.90
11700;DHT22;5906;51.660;6.674;2022-11-03T07:24:24;12.30;99.90
11700;DHT22;5906;51.660;6.674;2022-11-03T07:29:40;12.40;99.90
11700;DHT22;5906;51.660;6.674;2022-11-03T07:32:15;12.40;99.90
11700;DHT22;5906;51.660;6.674;2022-11-03T07:34:44;12.40;99.90
11700;DHT22;5906;51.660;6.674;2022-11-03T07:37:20;12.40;99.90
11700;DHT22;5906;51.660;6.674;2022-11-03T07:39:48;12.40;99.90
11700;DHT22;5906;51.660;6.674;2022-11-03T07:42:21;12.60;99.90
11700;DHT22;5906;51.660;6.674;2022-11-03T07:44:48;12.60;99.90
11700;DHT22;5906;51.660;6.674;2022-11-03T07:47:19;12.70;99.90
11700;DHT22;5906;51.660;6.674;2022-11-03T07:49:47;12.70;99.90
11700;DHT22;5906;51.660;6.674;2022-11-03T07:52:15;12.80;99.90
11700;DHT22;5906;51.660;6.674;2022-11-03T07:54:45;12.80;99.90
11700;DHT22;5906;51.660;6.674;2022-11-03T07:57:18;12.90;99.90
11700;DHT22;5906;51.660;6.674;2022-11-03T07:59:47;12.90;99.90
11700;DHT22;5906;51.660;6.674;2022-11-03T08:02:29;13.00;99.90
11700;DHT22;5906;51.660;6.674;2022-11-03T08:04:57;13.00;99.90
11700;DHT22;5906;51.660;6.674;2022-11-03T08:07:24;13.00;99.90
11700;DHT22;5906;51.660;6.674;2022-11-03T08:09:51;13.00;99.90
11700;DHT22;5906;51.660;6.674;2022-11-03T08:12:19;13.10;99.90
11700;DHT22;5906;51.660;6.674;2022-11-03T08:14:46;13.20;99.90
11700;DHT22;5906;51.660;6.674;2022-11-03T08:17:13;13.20;99.90
11700;DHT22;5906;51.660;6.674;2022-11-03T08:19:43;13.20;99.90
11700;DHT22;5906;51.660;6.674;2022-11-03T08:22:09;13.20;99.90
11700;DHT22;5906;51.660;6.674;2022-11-03T08:24:36;13.30;99.90
11700;DHT22;5906;51.660;6.674;2022-11-03T08:27:03;13.30;99.90
11700;DHT22;5906;51.660;6.674;2022-11-03T08:29:31;13.20;99.90
11700;DHT22;5906;51.660;6.674;2022-11-03T08:31:57;13.30;99.90
11700;DHT22;5906;51.660;6.674;2022-11-03T08:34:24;13.40;99.90
11700;DHT22;5906;51.660;6.674;2022-11-03T08:36:51;13.50;99.90
11700;DHT22;5906;51.660;6.674;2022-11-03T08:39:18;13.50;99.90
11700;DHT22;5906;51.660;6.674;2022-11-03T08:41:44;13.70;99.90
11700;DHT22;5906;51.660;6.674;2022-11-03T08:44:12;13.70;99.90
11700;DHT22;5906;51.660;6.674;2022-11-03T08:46:38;13.90;99.90
11700;DHT22;5906;51.660;6.674;2022-11-03T08:49:05;13.90;99.90
11700;DHT22;5906;51.660;6.674;2022-11-03T08:51:32;14.00;99.90
11700;DHT22;5906;51.660;6.674;2022-11-03T08:53:58;14.10;99.90
11700;DHT22;5906;51.660;6.674;2022-11-03T08:56:25;14.10;99.90
11700;DHT22;5906;51.660;6.674;2022-11-03T08:58:52;14.20;99.90
11700;DHT22;5906;51.660;6.674;2022-11-03T09:01:19;14.10;99.90
11700;DHT22;5906;51.660;6.674;2022-11-03T09:03:46;14.10;99.90
11700;DHT22;5906;51.660;6.674;2022-11-03T09:06:12;14.10;99.90
11700;DHT22;5906;51.660;6.674;2022-11-03T09:08:39;14.10;99.90
11700;DHT22;5906;51.660;6.674;2022-11-03T09:11:26;14.10;99.90
11700;DHT22;5906;51.660;6.674;2022-11-03T09:13:53;14.10;99.90
11700;DHT22;5906;51.660;6.674;2022-11-03T09:16:20;14.20;99.90
11700;DHT22;5906;51.660;6.674;2022-11-03T09:18:47;14.30;99.90
11700;DHT22;5906;51.660;6.674;2022-11-03T09:21:13;14.20;99.90
11700;DHT22;5906;51.660;6.674;2022-11-03T09:23:40;14.20;99.90
11700;DHT22;5906;51.660;6.674;2022-11-03T09:26:07;14.20;99.90
11700;DHT22;5906;51.660;6.674;2022-11-03T09:28:34;14.20;99.90
11700;DHT22;5906;51.660;6.674;2022-11-03T09:31:01;14.30;99.90
11700;DHT22;5906;51.660;6.674;2022-11-03T09:33:28;14.30;99.90
11700;DHT22;5906;51.660;6.674;2022-11-03T09:35:55;14.40;99.90
11700;DHT22;5906;51.660;6.674;2022-11-03T09:38:21;14.40;99.90
11700;DHT22;5906;51.660;6.674;2022-11-03T09:40:48;14.50;99.90
11700;DHT22;5906;51.660;6.674;2022-11-03T09:43:15;14.50;99.90
11700;DHT22;5906;51.660;6.674;2022-11-03T09:45:41;14.60;99.90
11700;DHT22;5906;51.660;6.674;2022-11-03T09:48:09;14.70;99.90
11700;DHT22;5906;51.660;6.674;2022-11-03T09:50:37;14.70;99.90
11700;DHT22;5906;51.660;6.674;2022-11-03T09:53:04;14.70;99.90
11700;DHT22;5906;51.660;6.674;2022-11-03T09:55:32;14.80;99.90
11700;DHT22;5906;51.660;6.674;2022-11-03T09:58:01;15.00;99.90
11700;DHT22;5906;51.660;6.674;2022-11-03T10:00:34;15.00;99.90
11700;DHT22;5906;51.660;6.674;2022-11-03T10:03:02;15.10;99.90
11700;DHT22;5906;51.660;6.674;2022-11-03T10:05:31;15.10;99.90
11700;DHT22;5906;51.660;6.674;2022-11-03T10:08:01;15.10;99.90
11700;DHT22;5906;51.660;6.674;2022-11-03T10:10:29;15.30;99.90
11700;DHT22;5906;51.660;6.674;2022-11-03T10:12:58;15.20;99.90
11700;DHT22;5906;51.660;6.674;2022-11-03T10:15:26;15.20;99.90
11700;DHT22;5906;51.660;6.674;2022-11-03T10:17:54;15.20;99.90
11700;DHT22;5906;51.660;6.674;2022-11-03T10:20:22;15.20;99.90
11700;DHT22;5906;51.660;6.674;2022-11-03T10:22:53;15.20;99.90
11700;DHT22;5906;51.660;6.674;2022-11-03T10:25:40;15.20;99.90
11700;DHT22;5906;51.660;6.674;2022-11-03T10:33:38;15.20;99.90
11700;DHT22;5906;51.660;6.674;2022-11-03T10:38:42;15.20;99.90
11700;DHT22;5906;51.660;6.674;2022-11-03T10:44:15;15.30;99.90
11700;DHT22;5906;51.660;6.674;2022-11-03T10:46:33;15.30;99.90
11700;DHT22;5906;51.660;6.674;2022-11-03T10:49:17;15.40;99.90
11700;DHT22;5906;51.660;6.674;2022-11-03T10:51:50;15.40;99.90
11700;DHT22;5906;51.660;6.674;2022-11-03T10:54:20;15.40;99.90
11700;DHT22;5906;51.660;6.674;2022-11-03T10:56:48;15.40;99.90
11700;DHT22;5906;51.660;6.674;2022-11-03T10:59:30;15.40;99.90
11700;DHT22;5906;51.660;6.674;2022-11-03T11:01:59;15.40;99.90
11700;DHT22;5906;51.660;6.674;2022-11-03T11:04:26;15.40;99.90
11700;DHT22;5906;51.660;6.674;2022-11-03T11:06:53;15.40;99.90
11700;DHT22;5906;51.660;6.674;2022-11-03T11:09:24;15.40;99.90
11700;DHT22;5906;51.660;6.674;2022-11-03T11:14:35;15.50;99.90
11700;DHT22;5906;51.660;6.674;2022-11-03T11:17:04;15.60;99.90
11700;DHT22;5906;51.660;6.674;2022-11-03T11:22:36;15.70;99.90
11700;DHT22;5906;51.660;6.674;2022-11-03T11:25:03;15.80;99.90
11700;DHT22;5906;51.660;6.674;2022-11-03T11:30:03;15.90;99.90
11700;DHT22;5906;51.660;6.674;2022-11-03T11:37:42;16.10;99.90
11700;DHT22;5906;51.660;6.674;2022-11-03T11:40:47;16.10;99.90
11700;DHT22;5906;51.660;6.674;2022-11-03T11:48:35;16.30;99.90
11700;DHT22;5906;51.660;6.674;2022-11-03T11:51:03;16.30;99.90
11700;DHT22;5906;51.660;6.674;2022-11-03T11:53:38;16.40;99.90
11700;DHT22;5906;51.660;6.674;2022-11-03T11:56:09;16.50;99.90
11700;DHT22;5906;51.660;6.674;2022-11-03T11:58:50;16.60;99.90
11700;DHT22;5906;51.660;6.674;2022-11-03T12:01:23;16.70;99.90
11700;DHT22;5906;51.660;6.674;2022-11-03T12:03:57;16.70;99.90
11700;DHT22;5906;51.660;6.674;2022-11-03T12:06:39;16.50;99.90
11700;DHT22;5906;51.660;6.674;2022-11-03T12:09:20;16.50;99.90
11700;DHT22;5906;51.660;6.674;2022-11-03T12:11:58;16.40;99.90
11700;DHT22;5906;51.660;6.674;2022-11-03T12:14:35;16.40;99.90
11700;DHT22;5906;51.660;6.674;2022-11-03T12:19:45;16.40;99.90
11700;DHT22;5906;51.660;6.674;2022-11-03T12:24:58;16.40;99.90
11700;DHT22;5906;51.660;6.674;2022-11-03T12:29:53;16.40;99.90
11700;DHT22;5906;51.660;6.674;2022-11-03T12:32:21;16.40;99.90
11700;DHT22;5906;51.660;6.674;2022-11-03T12:35:00;16.30;99.90
11700;DHT22;5906;51.660;6.674;2022-11-03T12:37:27;16.30;99.90
11700;DHT22;5906;51.660;6.674;2022-11-03T12:39:54;16.30;99.90
11700;DHT22;5906;51.660;6.674;2022-11-03T12:42:20;16.30;99.90
11700;DHT22;5906;51.660;6.674;2022-11-03T12:44:50;16.30;99.90
11700;DHT22;5906;51.660;6.674;2022-11-03T12:47:17;16.30;99.90
11700;DHT22;5906;51.660;6.674;2022-11-03T12:49:43;16.30;99.90
11700;DHT22;5906;51.660;6.674;2022-11-03T12:52:10;16.30;99.90
11700;DHT22;5906;51.660;6.674;2022-11-03T12:54:37;16.20;99.90
11700;DHT22;5906;51.660;6.674;2022-11-03T12:57:05;16.20;99.90
11700;DHT22;5906;51.660;6.674;2022-11-03T12:59:31;16.20;99.90
11700;DHT22;5906;51.660;6.674;2022-11-03T13:01:58;16.20;99.90
11700;DHT22;5906;51.660;6.674;2022-11-03T13:04:25;16.20;99.90
11700;DHT22;5906;51.660;6.674;2022-11-03T13:06:52;16.30;99.90
11700;DHT22;5906;51.660;6.674;2022-11-03T13:09:19;16.30;99.90
11700;DHT22;5906;51.660;6.674;2022-11-03T13:11:46;16.20;99.90
11700;DHT22;5906;51.660;6.674;2022-11-03T13:14:31;16.20;99.90
11700;DHT22;5906;51.660;6.674;2022-11-03T13:16:59;16.20;99.90
11700;DHT22;5906;51.660;6.674;2022-11-03T13:19:29;16.10;99.90
11700;DHT22;5906;51.660;6.674;2022-11-03T13:21:56;16.20;99.90
11700;DHT22;5906;51.660;6.674;2022-11-03T13:24:22;16.10;99.90
11700;DHT22;5906;51.660;6.674;2022-11-03T13:26:49;16.10;99.90
11700;DHT22;5906;51.660;6.674;2022-11-03T13:29:15;16.10;99.90
11700;DHT22;5906;51.660;6.674;2022-11-03T13:31:42;16.00;99.90
11700;DHT22;5906;51.660;6.674;2022-11-03T13:34:09;16.00;99.90
11700;DHT22;5906;51.660;6.674;2022-11-03T13:36:36;16.10;99.90
11700;DHT22;5906;51.660;6.674;2022-11-03T13:39:03;16.10;99.90
11700;DHT22;5906;51.660;6.674;2022-11-03T13:41:30;16.10;99.90
11700;DHT22;5906;51.660;6.674;2022-11-03T13:43:56;16.10;99.90
11700;DHT22;5906;51.660;6.674;2022-11-03T13:46:23;16.10;99.90
11700;DHT22;5906;51.660;6.674;2022-11-03T13:48:50;16.10;99.90
11700;DHT22;5906;51.660;6.674;2022-11-03T13:51:36;16.20;99.90
11700;DHT22;5906;51.660;6.674;2022-11-03T13:54:03;16.20;99.90
11700;DHT22;5906;51.660;6.674;2022-11-03T13:56:50;16.20;99.90
11700;DHT22;5906;51.660;6.674;2022-11-03T13:59:37;16.20;99.90
11700;DHT22;5906;51.660;6.674;2022-11-03T14:02:04;16.20;99.90
11700;DHT22;5906;51.660;6.674;2022-11-03T14:04:51;16.20;99.90
11700;DHT22;5906;51.660;6.674;2022-11-03T14:07:18;16.20;99.90
11700;DHT22;5906;51.660;6.674;2022-11-03T14:09:45;16.10;99.90
11700;DHT22;5906;51.660;6.674;2022-11-03T14:12:12;16.10;99.90
11700;DHT22;5906;51.660;6.674;2022-11-03T14:15:03;16.00;99.90
11700;DHT22;5906;51.660;6.674;2022-11-03T14:17:30;15.90;99.90
11700;DHT22;5906;51.660;6.674;2022-11-03T14:19:57;15.80;99.90
11700;DHT22;5906;51.660;6.674;2022-11-03T14:22:30;15.80;99.90
11700;DHT22;5906;51.660;6.674;2022-11-03T14:24:56;15.80;99.90
11700;DHT22;5906;51.660;6.674;2022-11-03T14:27:23;15.80;99.90
11700;DHT22;5906;51.660;6.674;2022-11-03T14:29:50;15.80;99.90
11700;DHT22;5906;51.660;6.674;2022-11-03T14:32:18;15.60;99.90
11700;DHT22;5906;51.660;6.674;2022-11-03T14:34:45;15.60;99.90
11700;DHT22;5906;51.660;6.674;2022-11-03T14:37:12;15.50;99.90
11700;DHT22;5906;51.660;6.674;2022-11-03T14:39:39;15.40;99.90
11700;DHT22;5906;51.660;6.674;2022-11-03T14:42:09;15.50;99.90
11700;DHT22;5906;51.660;6.674;2022-11-03T14:44:41;15.30;99.90
11700;DHT22;5906;51.660;6.674;2022-11-03T14:47:09;15.30;99.90
11700;DHT22;5906;51.660;6.674;2022-11-03T14:49:37;15.30;99.90
11700;DHT22;5906;51.660;6.674;2022-11-03T14:52:05;15.20;99.90
11700;DHT22;5906;51.660;6.674;2022-11-03T14:54:33;15.10;99.90
11700;DHT22;5906;51.660;6.674;2022-11-03T14:57:01;15.20;99.90
11700;DHT22;5906;51.660;6.674;2022-11-03T14:59:28;15.10;99.90
11700;DHT22;5906;51.660;6.674;2022-11-03T15:01:55;15.00;99.90
11700;DHT22;5906;51.660;6.674;2022-11-03T15:04:23;15.00;99.90
11700;DHT22;5906;51.660;6.674;2022-11-03T15:06:50;14.80;99.90
11700;DHT22;5906;51.660;6.674;2022-11-03T15:09:17;14.60;99.90
11700;DHT22;5906;51.660;6.674;2022-11-03T15:11:45;14.40;99.90
11700;DHT22;5906;51.660;6.674;2022-11-03T15:14:12;14.30;99.90
11700;DHT22;5906;51.660;6.674;2022-11-03T15:16:39;14.00;99.90
11700;DHT22;5906;51.660;6.674;2022-11-03T15:19:06;14.00;99.90
11700;DHT22;5906;51.660;6.674;2022-11-03T15:21:34;13.80;99.90
11700;DHT22;5906;51.660;6.674;2022-11-03T15:24:00;13.80;99.90
11700;DHT22;5906;51.660;6.674;2022-11-03T15:26:48;13.80;99.90
11700;DHT22;5906;51.660;6.674;2022-11-03T15:29:15;13.70;99.90
11700;DHT22;5906;51.660;6.674;2022-11-03T15:31:41;13.50;99.90
11700;DHT22;5906;51.660;6.674;2022-11-03T15:34:13;13.40;99.90
11700;DHT22;5906;51.660;6.674;2022-11-03T15:36:40;13.40;99.90
11700;DHT22;5906;51.660;6.674;2022-11-03T15:39:07;13.40;99.90
11700;DHT22;5906;51.660;6.674;2022-11-03T15:41:34;13.30;99.90
11700;DHT22;5906;51.660;6.674;2022-11-03T15:44:01;13.20;99.90
11700;DHT22;5906;51.660;6.674;2022-11-03T15:46:27;13.10;99.90
11700;DHT22;5906;51.660;6.674;2022-11-03T15:48:54;13.00;99.90
11700;DHT22;5906;51.660;6.674;2022-11-03T15:51:22;13.00;99.90
11700;DHT22;5906;51.660;6.674;2022-11-03T15:53:50;13.00;99.90
11700;DHT22;5906;51.660;6.674;2022-11-03T15:56:24;12.90;99.90
11700;DHT22;5906;51.660;6.674;2022-11-03T15:58:51;12.80;99.90
11700;DHT22;5906;51.660;6.674;2022-11-03T16:01:18;12.80;99.90
11700;DHT22;5906;51.660;6.674;2022-11-03T16:03:46;12.90;99.90
11700;DHT22;5906;51.660;6.674;2022-11-03T16:06:12;12.70;99.90
11700;DHT22;5906;51.660;6.674;2022-11-03T16:08:39;12.70;99.90
11700;DHT22;5906;51.660;6.674;2022-11-03T16:11:06;12.70;99.90
11700;DHT22;5906;51.660;6.674;2022-11-03T16:13:32;12.60;99.90
11700;DHT22;5906;51.660;6.674;2022-11-03T16:15:59;12.70;99.90
11700;DHT22;5906;51.660;6.674;2022-11-03T16:18:26;12.70;99.90
11700;DHT22;5906;51.660;6.674;2022-11-03T16:20:53;12.60;99.90
11700;DHT22;5906;51.660;6.674;2022-11-03T16:23:19;12.50;99.90
11700;DHT22;5906;51.660;6.674;2022-11-03T16:25:46;12.40;99.90
11700;DHT22;5906;51.660;6.674;2022-11-03T16:28:13;12.40;99.90
11700;DHT22;5906;51.660;6.674;2022-11-03T16:30:40;12.40;99.90
11700;DHT22;5906;51.660;6.674;2022-11-03T16:33:06;12.40;99.90
11700;DHT22;5906;51.660;6.674;2022-11-03T16:35:34;12.40;99.90
11700;DHT22;5906;51.660;6.674;2022-11-03T16:38:00;12.30;99.90
11700;DHT22;5906;51.660;6.674;2022-11-03T16:40:27;12.30;99.90
11700;DHT22;5906;51.660;6.674;2022-11-03T16:42:54;12.30;99.90
11700;DHT22;5906;51.660;6.674;2022-11-03T16:45:22;12.30;99.90
11700;DHT22;5906;51.660;6.674;2022-11-03T16:47:51;12.30;99.90
11700;DHT22;5906;51.660;6.674;2022-11-03T16:50:18;12.20;99.90
11700;DHT22;5906;51.660;6.674;2022-11-03T16:52:46;12.10;99.90
11700;DHT22;5906;51.660;6.674;2022-11-03T16:55:14;12.10;99.90
11700;DHT22;5906;51.660;6.674;2022-11-03T16:57:41;12.10;99.90
11700;DHT22;5906;51.660;6.674;2022-11-03T17:00:16;12.10;99.90
11700;DHT22;5906;51.660;6.674;2022-11-03T17:02:44;12.20;99.90
11700;DHT22;5906;51.660;6.674;2022-11-03T17:05:12;12.20;99.90
11700;DHT22;5906;51.660;6.674;2022-11-03T17:07:39;12.30;99.90
11700;DHT22;5906;51.660;6.674;2022-11-03T17:10:07;12.30;99.90